sensor_id;sensor_type;location;lat;lon;timestamp;pressure;altitude;pressure_sealevel;temperature;humidity
34185;BME280;20454;48.100;11.776;2023-04-30T06:03:07;95653.81;;;12.11;89.75
34185;BME280;20454;48.100;11.776;2023-04-30T06:05:32;95662.88;;;12.17;89.41
34185;BME280;20454;48.100;11.776;2023-04-30T06:07:58;95659.88;;;12.22;88.27
34185;BME280;20454;48.100;11.776;2023-04-30T06:10:23;95664.16;;;12.28;87.27
34185;BME280;20454;48.100;11.776;2023-04-30T06:12:49;95656.78;;;12.32;87.39
34185;BME280;20454;48.100;11.776;2023-04-30T06:15:15;95652.31;;;12.39;87.26
34185;BME280;20454;48.100;11.776;2023-04-30T06:17:41;95661.00;;;12.46;85.40
34185;BME280;20454;48.100;11.776;2023-04-30T06:20:07;95661.84;;;12.55;83.79
34185;BME280;20454;48.100;11.776;2023-04-30T06:22:33;95653.13;;;12.57;83.34
34185;BME280;20454;48.100;11.776;2023-04-30T06:24:58;95647.69;;;12.69;81.52
34185;BME280;20454;48.100;11.776;2023-04-30T06:27:24;95645.06;;;12.64;81.95
34185;BME280;20454;48.100;11.776;2023-04-30T06:29:52;95651.78;;;12.71;82.79
34185;BME280;20454;48.100;11.776;2023-04-30T06:32:18;95655.22;;;12.77;81.57
34185;BME280;20454;48.100;11.776;2023-04-30T06:34:44;95655.38;;;12.80;80.61
34185;BME280;20454;48.100;11.776;2023-04-30T06:37:09;95649.63;;;12.85;80.55
34185;BME280;20454;48.100;11.776;2023-04-30T06:39:35;95644.66;;;12.91;79.58
34185;BME280;20454;48.100;11.776;2023-04-30T06:42:01;95651.78;;;12.80;78.80
34185;BME280;20454;48.100;11.776;2023-04-30T06:44:26;95644.56;;;12.79;79.53
34185;BME280;20454;48.100;11.776;2023-04-30T06:46:52;95645.03;;;12.81;79.18
34185;BME280;20454;48.100;11.776;2023-04-30T06:49:18;95648.78;;;12.85;80.05
34185;BME280;20454;48.100;11.776;2023-04-30T06:51:43;95648.16;;;12.96;78.15
34185;BME280;20454;48.100;11.776;2023-04-30T06:54:09;95650.94;;;12.88;78.72
34185;BME280;20454;48.100;11.776;2023-04-30T06:56:35;95644.88;;;12.86;79.14
34185;BME280;20454;48.100;11.776;2023-04-30T06:59:00;95639.94;;;12.83;79.57
34185;BME280;20454;48.100;11.776;2023-04-30T10:17:06;95620.84;;;16.93;58.55
34185;BME280;20454;48.100;11.776;2023-04-30T10:19:34;95618.69;;;17.02;56.45
34185;BME280;20454;48.100;11.776;2023-04-30T10:22:00;95615.03;;;16.86;58.32
34185;BME280;20454;48.100;11.776;2023-04-30T10:24:26;95626.16;;;16.83;58.23
34185;BME280;20454;48.100;11.776;2023-04-30T10:26:52;95609.59;;;16.78;57.76
34185;BME280;20454;48.100;11.776;2023-04-30T10:29:19;95612.66;;;16.73;58.50
34185;BME280;20454;48.100;11.776;2023-04-30T13:04:45;95490.06;;;23.48;40.94
34185;BME280;20454;48.100;11.776;2023-04-30T13:07:11;95479.50;;;23.73;38.41
34185;BME280;20454;48.100;11.776;2023-04-30T13:09:37;95483.97;;;23.84;36.92
34185;BME280;20454;48.100;11.776;2023-04-30T13:12:04;95477.47;;;23.52;39.15
34185;BME280;20454;48.100;11.776;2023-04-30T13:14:31;95473.84;;;23.45;38.50
34185;BME280;20454;48.100;11.776;2023-04-30T13:16:57;95462.75;;;22.87;38.10
34185;BME280;20454;48.100;11.776;2023-04-30T13:19:23;95476.66;;;22.21;37.99
34185;BME280;20454;48.100;11.776;2023-04-30T13:21:49;95481.00;;;21.50;39.93
34185;BME280;20454;48.100;11.776;2023-04-30T13:24:14;95471.69;;;21.03;41.61
34185;BME280;20454;48.100;11.776;2023-04-30T13:26:42;95477.09;;;21.22;41.98
34185;BME280;20454;48.100;11.776;2023-04-30T13:29:08;95466.38;;;21.92;40.54
34185;BME280;20454;48.100;11.776;2023-04-30T15:10:02;95407.25;;;18.61;46.42
34185;BME280;20454;48.100;11.776;2023-04-30T15:12:28;95413.97;;;18.53;46.59
34185;BME280;20454;48.100;11.776;2023-04-30T15:14:53;95415.38;;;18.43;48.56
34185;BME280;20454;48.100;11.776;2023-04-30T15:17:20;95418.63;;;18.45;48.64
34185;BME280;20454;48.100;11.776;2023-04-30T15:19:45;95408.19;;;18.46;48.55
34185;BME280;20454;48.100;11.776;2023-04-30T15:22:11;95417.22;;;18.55;48.72
34185;BME280;20454;48.100;11.776;2023-04-30T15:24:37;95420.56;;;18.60;48.60
34185;BME280;20454;48.100;11.776;2023-04-30T15:27:03;95427.13;;;18.68;50.15
34185;BME280;20454;48.100;11.776;2023-04-30T15:29:29;95418.72;;;18.71;49.35
34185;BME280;20454;48.100;11.776;2023-04-30T15:31:54;95412.81;;;18.57;48.20
34185;BME280;20454;48.100;11.776;2023-04-30T15:34:21;95409.09;;;18.50;49.42
34185;BME280;20454;48.100;11.776;2023-04-30T15:36:47;95408.25;;;18.49;48.40
34185;BME280;20454;48.100;11.776;2023-04-30T15:39:13;95416.50;;;18.39;49.50
34185;BME280;20454;48.100;11.776;2023-04-30T15:41:38;95411.34;;;18.22;49.85
34185;BME280;20454;48.100;11.776;2023-04-30T15:44:04;95409.78;;;18.05;49.68
34185;BME280;20454;48.100;11.776;2023-04-30T15:46:30;95419.66;;;17.96;50.16
34185;BME280;20454;48.100;11.776;2023-04-30T15:48:56;95413.34;;;17.83;49.13
34185;BME280;20454;48.100;11.776;2023-04-30T15:51:22;95415.91;;;17.73;49.92
34185;BME280;20454;48.100;11.776;2023-04-30T15:53:48;95412.53;;;17.64;51.06
34185;BME280;20454;48.100;11.776;2023-04-30T15:56:13;95419.84;;;17.68;50.07
34185;BME280;20454;48.100;11.776;2023-04-30T15:58:39;95407.56;;;17.76;50.44
34185;BME280;20454;48.100;11.776;2023-04-30T16:01:05;95400.00;;;17.80;50.52
34185;BME280;20454;48.100;11.776;2023-04-30T16:03:31;95405.06;;;17.90;50.38
34185;BME280;20454;48.100;11.776;2023-04-30T16:05:58;95410.84;;;17.97;49.40
34185;BME280;20454;48.100;11.776;2023-04-30T16:08:25;95413.19;;;17.95;49.43
34185;BME280;20454;48.100;11.776;2023-04-30T16:10:51;95406.69;;;17.91;50.46
34185;BME280;20454;48.100;11.776;2023-04-30T16:13:16;95398.09;;;17.84;50.08
34185;BME280;20454;48.100;11.776;2023-04-30T16:15:42;95403.50;;;17.74;50.44
34185;BME280;20454;48.100;11.776;2023-04-30T16:18:08;95398.38;;;17.60;50.33
34185;BME280;20454;48.100;11.776;2023-04-30T16:20:35;95399.69;;;17.47;50.25
34185;BME280;20454;48.100;11.776;2023-04-30T16:23:01;95406.69;;;17.38;50.63
34185;BME280;20454;48.100;11.776;2023-04-30T16:25:29;95410.34;;;17.38;49.94
34185;BME280;20454;48.100;11.776;2023-04-30T16:27:55;95408.88;;;17.29;50.14
34185;BME280;20454;48.100;11.776;2023-04-30T16:30:21;95407.63;;;17.26;49.81
34185;BME280;20454;48.100;11.776;2023-04-30T16:32:47;95401.66;;;17.12;49.84
34185;BME280;20454;48.100;11.776;2023-04-30T16:35:12;95396.22;;;17.19;48.60
34185;BME280;20454;48.100;11.776;2023-04-30T16:37:38;95402.94;;;16.99;50.38
34185;BME280;20454;48.100;11.776;2023-04-30T19:23:19;95431.75;;;12.36;70.38
34185;BME280;20454;48.100;11.776;2023-04-30T19:25:46;95430.13;;;12.35;70.75
34185;BME280;20454;48.100;11.776;2023-04-30T19:28:12;95430.81;;;12.32;70.45
34185;BME280;20454;48.100;11.776;2023-04-30T19:30:40;95426.56;;;12.26;71.07
34185;BME280;20454;48.100;11.776;2023-04-30T19:33:11;95423.94;;;12.21;71.16
34185;BME280;20454;48.100;11.776;2023-04-30T19:35:37;95434.63;;;12.19;71.41
34185;BME280;20454;48.100;11.776;2023-04-30T19:38:03;95420.06;;;12.13;71.56
34185;BME280;20454;48.100;11.776;2023-04-30T19:40:28;95427.78;;;12.08;71.67
34185;BME280;20454;48.100;11.776;2023-04-30T19:42:54;95420.72;;;12.02;71.78
34185;BME280;20454;48.100;11.776;2023-04-30T19:45:20;95429.09;;;12.02;72.08
34185;BME280;20454;48.100;11.776;2023-04-30T19:47:45;95430.94;;;11.98;72.00
34185;BME280;20454;48.100;11.776;2023-04-30T19:50:11;95428.31;;;11.93;72.49
34185;BME280;20454;48.100;11.776;2023-04-30T19:52:37;95429.78;;;11.90;72.12
34185;BME280;20454;48.100;11.776;2023-04-30T19:55:02;95429.50;;;11.83;72.19
34185;BME280;20454;48.100;11.776;2023-04-30T19:57:28;95428.03;;;11.77;72.50
34185;BME280;20454;48.100;11.776;2023-04-30T19:59:59;95435.06;;;11.75;72.01
34185;BME280;20454;48.100;11.776;2023-04-30T20:02:26;95435.44;;;11.73;72.31
34185;BME280;20454;48.100;11.776;2023-04-30T20:04:52;95441.31;;;11.72;72.40
34185;BME280;20454;48.100;11.776;2023-04-30T20:07:18;95428.72;;;11.66;72.13
34185;BME280;20454;48.100;11.776;2023-04-30T20:09:44;95428.88;;;11.61;71.75
34185;BME280;20454;48.100;11.776;2023-04-30T20:12:09;95422.63;;;11.55;71.79
34185;BME280;20454;48.100;11.776;2023-04-30T20:14:35;95419.84;;;11.55;72.32
34185;BME280;20454;48.100;11.776;2023-04-30T20:17:01;95426.56;;;11.54;72.41
34185;BME280;20454;48.100;11.776;2023-04-30T20:19:26;95422.78;;;11.50;72.23
34185;BME280;20454;48.100;11.776;2023-04-30T20:21:52;95406.91;;;11.42;72.33
34185;BME280;20454;48.100;11.776;2023-04-30T20:24:19;95420.19;;;11.45;72.25
34185;BME280;20454;48.100;11.776;2023-04-30T20:26:46;95414.78;;;11.40;72.18
34185;BME280;20454;48.100;11.776;2023-04-30T20:29:11;95422.66;;;11.38;72.21
34185;BME280;20454;48.100;11.776;2023-04-30T20:31:37;95423.31;;;11.35;72.10
34185;BME280;20454;48.100;11.776;2023-04-30T20:34:03;95414.16;;;11.26;72.49
34185;BME280;20454;48.100;11.776;2023-04-30T20:36:29;95413.66;;;11.24;72.32
34185;BME280;20454;48.100;11.776;2023-04-30T20:38:58;95416.28;;;11.21;72.90
34185;BME280;20454;48.100;11.776;2023-04-30T20:41:24;95411.38;;;11.18;73.04
34185;BME280;20454;48.100;11.776;2023-04-30T20:43:51;95412.81;;;11.15;73.25
34185;BME280;20454;48.100;11.776;2023-04-30T20:46:18;95405.16;;;11.12;73.46
34185;BME280;20454;48.100;11.776;2023-04-30T20:48:44;95406.63;;;11.10;73.08
34185;BME280;20454;48.100;11.776;2023-04-30T20:51:10;95401.22;;;11.05;73.45
34185;BME280;20454;48.100;11.776;2023-04-30T20:53:35;95405.28;;;10.99;73.72
34185;BME280;20454;48.100;11.776;2023-04-30T20:56:01;95397.59;;;10.96;73.44
34185;BME280;20454;48.100;11.776;2023-04-30T20:58:27;95393.50;;;10.93;73.79
34185;BME280;20454;48.100;11.776;2023-04-30T21:00:53;95393.66;;;10.88;74.01
34185;BME280;20454;48.100;11.776;2023-04-30T21:03:18;95402.38;;;10.87;73.94
34185;BME280;20454;48.100;11.776;2023-04-30T21:05:44;95396.63;;;10.83;74.63
34185;BME280;20454;48.100;11.776;2023-04-30T21:08:10;95403.19;;;10.79;74.57
34185;BME280;20454;48.100;11.776;2023-04-30T21:10:36;95407.09;;;10.78;74.75
34185;BME280;20454;48.100;11.776;2023-04-30T21:13:03;95401.34;;;10.74;74.95
34185;BME280;20454;48.100;11.776;2023-04-30T21:15:30;95400.88;;;10.72;74.83
34185;BME280;20454;48.100;11.776;2023-04-30T21:17:56;95394.66;;;10.67;74.89
34185;BME280;20454;48.100;11.776;2023-04-30T21:20:23;95393.47;;;10.59;74.75
34185;BME280;20454;48.100;11.776;2023-04-30T21:22:49;95387.44;;;10.57;74.42
34185;BME280;20454;48.100;11.776;2023-04-30T21:25:15;95393.47;;;10.59;73.84
34185;BME280;20454;48.100;11.776;2023-04-30T21:27:41;95391.84;;;10.58;74.51
34185;BME280;20454;48.100;11.776;2023-04-30T21:30:07;95389.72;;;10.55;74.35
34185;BME280;20454;48.100;11.776;2023-04-30T21:32:32;95387.75;;;10.56;74.92
34185;BME280;20454;48.100;11.776;2023-04-30T21:34:58;95378.44;;;10.52;74.73
34185;BME280;20454;48.100;11.776;2023-04-30T21:37:24;95384.00;;;10.52;74.91
34185;BME280;20454;48.100;11.776;2023-04-30T21:39:49;95380.69;;;10.50;74.59
34185;BME280;20454;48.100;11.776;2023-04-30T21:42:15;95384.31;;;10.50;74.43
34185;BME280;20454;48.100;11.776;2023-04-30T21:44:41;95377.75;;;10.46;74.32
34185;BME280;20454;48.100;11.776;2023-04-30T21:47:06;95392.81;;;10.45;74.22
34185;BME280;20454;48.100;11.776;2023-04-30T21:49:35;95382.66;;;10.41;74.01
34185;BME280;20454;48.100;11.776;2023-04-30T21:52:00;95378.72;;;10.42;74.39
34185;BME280;20454;48.100;11.776;2023-04-30T21:54:28;95370.22;;;10.38;74.53
34185;BME280;20454;48.100;11.776;2023-04-30T21:56:54;95368.91;;;10.36;74.74
34185;BME280;20454;48.100;11.776;2023-04-30T21:59:20;95375.13;;;10.33;74.18
34185;BME280;20454;48.100;11.776;2023-04-30T22:01:45;95380.00;;;10.36;74.21
34185;BME280;20454;48.100;11.776;2023-04-30T22:04:11;95376.56;;;10.30;74.53
34185;BME280;20454;48.100;11.776;2023-04-30T22:06:37;95373.63;;;10.27;75.09
34185;BME280;20454;48.100;11.776;2023-04-30T22:09:02;95372.47;;;10.28;75.39
34185;BME280;20454;48.100;11.776;2023-04-30T22:11:29;95369.22;;;10.26;75.64
34185;BME280;20454;48.100;11.776;2023-04-30T22:13:54;95367.09;;;10.23;76.00
34185;BME280;20454;48.100;11.776;2023-04-30T22:16:20;95372.66;;;10.23;76.05
34185;BME280;20454;48.100;11.776;2023-04-30T22:18:45;95352.00;;;10.15;75.89
34185;BME280;20454;48.100;11.776;2023-04-30T22:21:11;95359.53;;;10.15;76.23
34185;BME280;20454;48.100;11.776;2023-04-30T22:23:37;95363.13;;;10.15;76.58
34185;BME280;20454;48.100;11.776;2023-04-30T22:26:03;95353.00;;;10.11;76.14
34185;BME280;20454;48.100;11.776;2023-04-30T22:28:35;95357.41;;;10.12;76.63
34185;BME280;20454;48.100;11.776;2023-04-30T22:31:01;95352.81;;;10.07;76.45
34185;BME280;20454;48.100;11.776;2023-04-30T22:33:27;95352.16;;;10.10;77.13
34185;BME280;20454;48.100;11.776;2023-04-30T22:35:53;95350.03;;;10.07;76.51
34185;BME280;20454;48.100;11.776;2023-04-30T22:38:19;95348.41;;;10.06;76.69
34185;BME280;20454;48.100;11.776;2023-04-30T22:40:45;95336.44;;;10.06;77.16
34185;BME280;20454;48.100;11.776;2023-04-30T22:43:11;95341.81;;;10.02;77.08
34185;BME280;20454;48.100;11.776;2023-04-30T22:45:37;95339.88;;;10.03;77.15
34185;BME280;20454;48.100;11.776;2023-04-30T22:48:05;95333.28;;;9.99;77.26
34185;BME280;20454;48.100;11.776;2023-04-30T22:50:31;95333.28;;;9.99;77.75
34185;BME280;20454;48.100;11.776;2023-04-30T22:52:57;95330.34;;;9.95;77.80
34185;BME280;20454;48.100;11.776;2023-04-30T22:55:23;95332.94;;;9.92;78.30
34185;BME280;20454;48.100;11.776;2023-04-30T22:57:49;95330.00;;;9.88;79.04
34185;BME280;20454;48.100;11.776;2023-04-30T23:00:16;95332.91;;;9.83;79.00
34185;BME280;20454;48.100;11.776;2023-04-30T23:02:43;95329.16;;;9.79;79.35
34185;BME280;20454;48.100;11.776;2023-04-30T23:05:08;95338.63;;;9.78;79.48
34185;BME280;20454;48.100;11.776;2023-04-30T23:07:34;95337.63;;;9.74;79.86
34185;BME280;20454;48.100;11.776;2023-04-30T23:10:00;95323.38;;;9.67;80.34
34185;BME280;20454;48.100;11.776;2023-04-30T23:12:26;95336.44;;;9.67;80.28
34185;BME280;20454;48.100;11.776;2023-04-30T23:14:51;95320.13;;;9.65;80.96
34185;BME280;20454;48.100;11.776;2023-04-30T23:17:17;95320.75;;;9.62;80.34
34185;BME280;20454;48.100;11.776;2023-04-30T23:19:43;95312.22;;;9.59;80.88
34185;BME280;20454;48.100;11.776;2023-04-30T23:22:09;95312.22;;;9.59;80.61
34185;BME280;20454;48.100;11.776;2023-04-30T23:24:34;95308.47;;;9.55;80.68
34185;BME280;20454;48.100;11.776;2023-04-30T23:27:02;95301.59;;;9.52;80.44
34185;BME280;20454;48.100;11.776;2023-04-30T23:29:27;95306.84;;;9.54;80.28
34185;BME280;20454;48.100;11.776;2023-04-30T23:31:53;95307.31;;;9.56;80.08
34185;BME280;20454;48.100;11.776;2023-04-30T23:34:20;95307.63;;;9.54;79.99
34185;BME280;20454;48.100;11.776;2023-04-30T23:36:45;95294.41;;;9.52;80.11
34185;BME280;20454;48.100;11.776;2023-04-30T23:39:11;95294.41;;;9.52;79.88
34185;BME280;20454;48.100;11.776;2023-04-30T23:41:37;95296.84;;;9.53;79.54
34185;BME280;20454;48.100;11.776;2023-04-30T23:44:02;95294.41;;;9.52;79.48
34185;BME280;20454;48.100;11.776;2023-04-30T23:46:28;95302.75;;;9.52;79.08
34185;BME280;20454;48.100;11.776;2023-04-30T23:48:54;95297.00;;;9.48;79.79
34185;BME280;20454;48.100;11.776;2023-04-30T23:51:20;95292.91;;;9.46;79.85
34185;BME280;20454;48.100;11.776;2023-04-30T23:53:47;95299.09;;;9.43;79.77
34185;BME280;20454;48.100;11.776;2023-04-30T23:56:13;95299.91;;;9.43;80.41
34185;BME280;20454;48.100;11.776;2023-04-30T23:58:38;95296.47;;;9.38;80.30
